sensor_id;sensor_type;location;lat;lon;timestamp;pressure;altitude;pressure_sealevel;temperature;humidity
36454;BME280;22478;51.740;-1.314;2023-04-02T00:02:30;100651.01;;;-0.39;100.00
36454;BME280;22478;51.740;-1.314;2023-04-02T00:06:31;100655.69;;;-0.82;100.00
36454;BME280;22478;51.740;-1.314;2023-04-02T00:09:00;100659.68;;;-1.06;100.00
36454;BME280;22478;51.740;-1.314;2023-04-02T00:11:31;100665.15;;;0.05;100.00
36454;BME280;22478;51.740;-1.314;2023-04-02T00:13:59;100664.36;;;-1.13;100.00
36454;BME280;22478;51.740;-1.314;2023-04-02T00:16:27;100672.24;;;-0.49;100.00
36454;BME280;22478;51.740;-1.314;2023-04-02T00:18:57;100681.37;;;-1.25;100.00
36454;BME280;22478;51.740;-1.314;2023-04-02T00:21:29;100685.40;;;-1.01;100.00
36454;BME280;22478;51.740;-1.314;2023-04-02T00:23:59;100688.46;;;-0.28;100.00
36454;BME280;22478;51.740;-1.314;2023-04-02T00:26:30;100694.17;;;-1.51;100.00
36454;BME280;22478;51.740;-1.314;2023-04-02T00:28:59;100699.32;;;-1.30;100.00
36454;BME280;22478;51.740;-1.314;2023-04-02T00:31:27;100689.32;;;-0.99;100.00
36454;BME280;22478;51.740;-1.314;2023-04-02T00:33:56;100691.88;;;-0.20;100.00
36454;BME280;22478;51.740;-1.314;2023-04-02T00:36:25;100693.06;;;-0.84;100.00
36454;BME280;22478;51.740;-1.314;2023-04-02T00:38:57;100699.86;;;-0.81;100.00
36454;BME280;22478;51.740;-1.314;2023-04-02T00:41:28;100701.12;;;-0.84;100.00
36454;BME280;22478;51.740;-1.314;2023-04-02T00:43:57;100714.09;;;-1.31;100.00
36454;BME280;22478;51.740;-1.314;2023-04-02T00:46:28;100719.07;;;-1.43;100.00
36454;BME280;22478;51.740;-1.314;2023-04-02T00:49:00;100710.31;;;-0.87;100.00
36454;BME280;22478;51.740;-1.314;2023-04-02T00:51:33;100716.75;;;-0.38;100.00
36454;BME280;22478;51.740;-1.314;2023-04-02T00:54:04;100721.36;;;-0.43;100.00
36454;BME280;22478;51.740;-1.314;2023-04-02T00:56:38;100732.36;;;-0.68;100.00
36454;BME280;22478;51.740;-1.314;2023-04-02T00:59:18;100740.98;;;-1.06;100.00
36454;BME280;22478;51.740;-1.314;2023-04-02T01:01:50;100734.88;;;0.28;100.00
36454;BME280;22478;51.740;-1.314;2023-04-02T01:04:27;100740.59;;;-1.01;100.00
36454;BME280;22478;51.740;-1.314;2023-04-02T01:06:55;100744.06;;;-1.20;100.00
36454;BME280;22478;51.740;-1.314;2023-04-02T01:09:29;100759.46;;;-1.75;100.00
36454;BME280;22478;51.740;-1.314;2023-04-02T01:12:13;100750.03;;;0.16;100.00
36454;BME280;22478;51.740;-1.314;2023-04-02T01:14:54;100752.13;;;-0.01;100.00
36454;BME280;22478;51.740;-1.314;2023-04-02T01:17:34;100741.50;;;0.79;100.00
36454;BME280;22478;51.740;-1.314;2023-04-02T01:21:53;100746.75;;;-0.38;100.00
36454;BME280;22478;51.740;-1.314;2023-04-02T01:24:27;100754.65;;;0.46;100.00
36454;BME280;22478;51.740;-1.314;2023-04-02T01:26:57;100757.14;;;-0.46;100.00
36454;BME280;22478;51.740;-1.314;2023-04-02T01:29:26;100756.32;;;0.05;100.00
36454;BME280;22478;51.740;-1.314;2023-04-02T01:31:57;100754.52;;;0.17;100.00
36454;BME280;22478;51.740;-1.314;2023-04-02T01:34:27;100765.49;;;-0.99;100.00
36454;BME280;22478;51.740;-1.314;2023-04-02T01:37:04;100768.83;;;-1.38;100.00
36454;BME280;22478;51.740;-1.314;2023-04-02T01:39:45;100761.62;;;-0.74;100.00
36454;BME280;22478;51.740;-1.314;2023-04-02T01:42:19;100774.39;;;-1.06;100.00
36454;BME280;22478;51.740;-1.314;2023-04-02T01:44:49;100777.97;;;-1.43;100.00
36454;BME280;22478;51.740;-1.314;2023-04-02T01:47:20;100779.13;;;-1.07;100.00
36454;BME280;22478;51.740;-1.314;2023-04-02T01:49:48;100775.59;;;-0.72;100.00
36454;BME280;22478;51.740;-1.314;2023-04-02T01:52:18;100785.76;;;-1.27;100.00
36454;BME280;22478;51.740;-1.314;2023-04-02T01:54:52;100779.44;;;0.14;100.00
36454;BME280;22478;51.740;-1.314;2023-04-02T01:57:19;100788.65;;;-1.06;100.00
36454;BME280;22478;51.740;-1.314;2023-04-02T01:59:46;100782.32;;;0.54;100.00
36454;BME280;22478;51.740;-1.314;2023-04-02T02:02:13;100783.83;;;-0.38;100.00
36454;BME280;22478;51.740;-1.314;2023-04-02T02:04:40;100779.59;;;1.18;100.00
36454;BME280;22478;51.740;-1.314;2023-04-02T02:07:14;100782.05;;;1.60;100.00
36454;BME280;22478;51.740;-1.314;2023-04-02T02:09:42;100796.57;;;-0.90;100.00
36454;BME280;22478;51.740;-1.314;2023-04-02T02:12:12;100796.30;;;-0.57;100.00
36454;BME280;22478;51.740;-1.314;2023-04-02T02:14:45;100803.22;;;-0.72;100.00
36454;BME280;22478;51.740;-1.314;2023-04-02T02:17:17;100797.17;;;-0.36;100.00
36454;BME280;22478;51.740;-1.314;2023-04-02T02:19:46;100798.78;;;-0.01;100.00
36454;BME280;22478;51.740;-1.314;2023-04-02T02:22:20;100816.14;;;-1.25;100.00
36454;BME280;22478;51.740;-1.314;2023-04-02T02:24:51;100807.01;;;0.58;100.00
36454;BME280;22478;51.740;-1.314;2023-04-02T02:27:58;100810.11;;;-0.21;100.00
36454;BME280;22478;51.740;-1.314;2023-04-02T02:30:31;100830.41;;;-0.74;100.00
36454;BME280;22478;51.740;-1.314;2023-04-02T02:33:04;100823.86;;;0.46;100.00
36454;BME280;22478;51.740;-1.314;2023-04-02T02:35:37;100830.20;;;-0.69;100.00
36454;BME280;22478;51.740;-1.314;2023-04-02T02:38:28;100824.17;;;0.17;100.00
36454;BME280;22478;51.740;-1.314;2023-04-02T02:41:04;100831.66;;;-0.14;100.00
36454;BME280;22478;51.740;-1.314;2023-04-02T02:43:36;100824.68;;;0.24;100.00
36454;BME280;22478;51.740;-1.314;2023-04-02T02:46:05;100827.25;;;0.69;100.00
36454;BME280;22478;51.740;-1.314;2023-04-02T02:48:36;100829.42;;;-0.18;100.00
36454;BME280;22478;51.740;-1.314;2023-04-02T02:51:07;100828.63;;;-0.60;100.00
36454;BME280;22478;51.740;-1.314;2023-04-02T02:53:44;100836.20;;;-0.57;100.00
36454;BME280;22478;51.740;-1.314;2023-04-02T02:56:12;100830.87;;;0.07;100.00
36454;BME280;22478;51.740;-1.314;2023-04-02T02:58:40;100837.96;;;-0.69;100.00
36454;BME280;22478;51.740;-1.314;2023-04-02T03:01:08;100836.77;;;0.08;100.00
36454;BME280;22478;51.740;-1.314;2023-04-02T03:03:35;100840.05;;;0.48;100.00
36454;BME280;22478;51.740;-1.314;2023-04-02T03:06:05;100854.91;;;-0.86;100.00
36454;BME280;22478;51.740;-1.314;2023-04-02T03:08:36;100856.18;;;-0.76;100.00
36454;BME280;22478;51.740;-1.314;2023-04-02T03:11:09;100860.24;;;-0.29;100.00
36454;BME280;22478;51.740;-1.314;2023-04-02T03:13:39;100856.61;;;1.35;100.00
36454;BME280;22478;51.740;-1.314;2023-04-02T03:16:12;100862.86;;;-1.42;100.00
36454;BME280;22478;51.740;-1.314;2023-04-02T03:18:47;100858.76;;;0.22;100.00
36454;BME280;22478;51.740;-1.314;2023-04-02T03:21:24;100862.01;;;0.62;100.00
36454;BME280;22478;51.740;-1.314;2023-04-02T03:23:58;100864.15;;;0.36;100.00
36454;BME280;22478;51.740;-1.314;2023-04-02T03:26:31;100874.46;;;0.13;100.00
36454;BME280;22478;51.740;-1.314;2023-04-02T03:29:05;100889.17;;;-0.42;100.00
36454;BME280;22478;51.740;-1.314;2023-04-02T03:31:37;100892.77;;;-0.89;100.00
36454;BME280;22478;51.740;-1.314;2023-04-02T03:34:12;100883.85;;;-0.01;100.00
36454;BME280;22478;51.740;-1.314;2023-04-02T03:36:45;100895.79;;;-2.20;100.00
36454;BME280;22478;51.740;-1.314;2023-04-02T03:39:20;100898.16;;;-1.14;100.00
36454;BME280;22478;51.740;-1.314;2023-04-02T03:41:53;100907.17;;;-1.02;100.00
36454;BME280;22478;51.740;-1.314;2023-04-02T03:44:24;100910.77;;;-0.45;100.00
36454;BME280;22478;51.740;-1.314;2023-04-02T03:46:56;100913.35;;;-0.25;100.00
36454;BME280;22478;51.740;-1.314;2023-04-02T03:49:30;100918.34;;;0.17;100.00
36454;BME280;22478;51.740;-1.314;2023-04-02T03:52:02;100920.79;;;-0.55;100.00
36454;BME280;22478;51.740;-1.314;2023-04-02T03:54:31;100919.56;;;0.38;100.00
36454;BME280;22478;51.740;-1.314;2023-04-02T03:57:00;100932.61;;;-1.42;100.00
36454;BME280;22478;51.740;-1.314;2023-04-02T03:59:36;100934.55;;;-1.06;100.00
36454;BME280;22478;51.740;-1.314;2023-04-02T04:02:15;100932.58;;;-0.05;100.00
36454;BME280;22478;51.740;-1.314;2023-04-02T04:04:46;100936.13;;;-0.22;100.00
36454;BME280;22478;51.740;-1.314;2023-04-02T04:07:21;100945.86;;;-0.91;100.00
36454;BME280;22478;51.740;-1.314;2023-04-02T04:09:54;100949.13;;;-1.44;100.00
36454;BME280;22478;51.740;-1.314;2023-04-02T04:12:29;100950.02;;;-1.45;100.00
36454;BME280;22478;51.740;-1.314;2023-04-02T04:14:59;100942.72;;;-0.22;100.00
36454;BME280;22478;51.740;-1.314;2023-04-02T04:17:32;100949.34;;;-1.10;100.00
36454;BME280;22478;51.740;-1.314;2023-04-02T04:20:12;100957.28;;;-1.59;100.00
36454;BME280;22478;51.740;-1.314;2023-04-02T04:22:42;100953.10;;;0.01;100.00
36454;BME280;22478;51.740;-1.314;2023-04-02T04:25:19;100957.80;;;-1.04;100.00
36454;BME280;22478;51.740;-1.314;2023-04-02T04:27:55;100958.22;;;0.31;100.00
36454;BME280;22478;51.740;-1.314;2023-04-02T04:30:28;100965.62;;;-0.76;100.00
36454;BME280;22478;51.740;-1.314;2023-04-02T04:33:01;100968.36;;;-1.23;100.00
36454;BME280;22478;51.740;-1.314;2023-04-02T04:35:33;100964.66;;;-0.40;100.00
36454;BME280;22478;51.740;-1.314;2023-04-02T04:38:03;100964.70;;;-1.01;100.00
36454;BME280;22478;51.740;-1.314;2023-04-02T04:40:34;100967.70;;;-0.81;100.00
36454;BME280;22478;51.740;-1.314;2023-04-02T04:43:06;100964.81;;;0.98;100.00
36454;BME280;22478;51.740;-1.314;2023-04-02T04:45:41;100977.21;;;-0.02;100.00
36454;BME280;22478;51.740;-1.314;2023-04-02T04:48:15;100982.84;;;-0.73;100.00
36454;BME280;22478;51.740;-1.314;2023-04-02T04:50:48;100982.91;;;-1.04;100.00
36454;BME280;22478;51.740;-1.314;2023-04-02T04:53:20;100981.29;;;-0.10;100.00
36454;BME280;22478;51.740;-1.314;2023-04-02T04:55:49;100979.71;;;0.99;100.00
36454;BME280;22478;51.740;-1.314;2023-04-02T04:58:23;100998.00;;;-1.13;100.00
36454;BME280;22478;51.740;-1.314;2023-04-02T05:00:59;100999.58;;;-1.48;100.00
36454;BME280;22478;51.740;-1.314;2023-04-02T05:03:32;101005.30;;;-0.63;100.00
36454;BME280;22478;51.740;-1.314;2023-04-02T05:06:07;101007.35;;;-1.37;100.00
36454;BME280;22478;51.740;-1.314;2023-04-02T05:08:41;101005.51;;;-1.54;100.00
36454;BME280;22478;51.740;-1.314;2023-04-02T05:11:15;101015.16;;;-0.98;100.00
36454;BME280;22478;51.740;-1.314;2023-04-02T05:13:49;101020.33;;;0.44;100.00
36454;BME280;22478;51.740;-1.314;2023-04-02T05:16:24;101025.25;;;-1.81;100.00
36454;BME280;22478;51.740;-1.314;2023-04-02T05:18:59;101025.28;;;-1.20;100.00
36454;BME280;22478;51.740;-1.314;2023-04-02T05:21:34;101036.74;;;-1.75;100.00
36454;BME280;22478;51.740;-1.314;2023-04-02T05:24:54;101043.05;;;-1.23;100.00
36454;BME280;22478;51.740;-1.314;2023-04-02T05:27:28;101053.24;;;-1.11;100.00
36454;BME280;22478;51.740;-1.314;2023-04-02T05:30:05;101062.54;;;-1.55;100.00
36454;BME280;22478;51.740;-1.314;2023-04-02T05:32:39;101064.85;;;-1.32;100.00
36454;BME280;22478;51.740;-1.314;2023-04-02T05:35:14;101064.21;;;-1.26;100.00
36454;BME280;22478;51.740;-1.314;2023-04-02T05:37:42;101061.09;;;-0.18;100.00
36454;BME280;22478;51.740;-1.314;2023-04-02T05:40:13;101067.07;;;-0.67;100.00
36454;BME280;22478;51.740;-1.314;2023-04-02T05:42:48;101072.79;;;-1.49;100.00
36454;BME280;22478;51.740;-1.314;2023-04-02T05:45:23;101072.02;;;-0.34;100.00
36454;BME280;22478;51.740;-1.314;2023-04-02T05:47:55;101082.50;;;-1.20;100.00
36454;BME280;22478;51.740;-1.314;2023-04-02T05:50:27;101085.89;;;-0.69;100.00
36454;BME280;22478;51.740;-1.314;2023-04-02T05:52:59;101090.00;;;-1.77;100.00
36454;BME280;22478;51.740;-1.314;2023-04-02T05:55:36;101101.93;;;-1.70;100.00
36454;BME280;22478;51.740;-1.314;2023-04-02T05:58:06;101100.01;;;-0.83;100.00
36454;BME280;22478;51.740;-1.314;2023-04-02T06:00:48;101108.08;;;-0.78;100.00
36454;BME280;22478;51.740;-1.314;2023-04-02T06:03:24;101101.13;;;-0.53;100.00
36454;BME280;22478;51.740;-1.314;2023-04-02T06:05:58;101112.95;;;-1.02;100.00
36454;BME280;22478;51.740;-1.314;2023-04-02T06:08:31;101107.58;;;-0.02;100.00
36454;BME280;22478;51.740;-1.314;2023-04-02T06:11:05;101122.90;;;-1.89;100.00
36454;BME280;22478;51.740;-1.314;2023-04-02T06:13:34;101123.58;;;-0.98;100.00
36454;BME280;22478;51.740;-1.314;2023-04-02T06:16:02;101121.43;;;-0.45;100.00
36454;BME280;22478;51.740;-1.314;2023-04-02T06:18:30;101126.55;;;-1.31;100.00
36454;BME280;22478;51.740;-1.314;2023-04-02T06:21:00;101121.66;;;-0.36;100.00
36454;BME280;22478;51.740;-1.314;2023-04-02T06:23:31;101125.83;;;-1.35;100.00
36454;BME280;22478;51.740;-1.314;2023-04-02T06:26:05;101126.57;;;-0.27;100.00
36454;BME280;22478;51.740;-1.314;2023-04-02T06:28:39;101125.74;;;-0.45;100.00
36454;BME280;22478;51.740;-1.314;2023-04-02T06:31:13;101129.83;;;0.43;100.00
36454;BME280;22478;51.740;-1.314;2023-04-02T06:33:44;101144.18;;;-1.17;100.00
36454;BME280;22478;51.740;-1.314;2023-04-02T06:36:11;101148.29;;;0.01;100.00
36454;BME280;22478;51.740;-1.314;2023-04-02T06:38:39;101160.06;;;-1.57;100.00
36454;BME280;22478;51.740;-1.314;2023-04-02T06:41:13;101161.44;;;-0.84;100.00
36454;BME280;22478;51.740;-1.314;2023-04-02T06:43:46;101170.42;;;-0.68;100.00
36454;BME280;22478;51.740;-1.314;2023-04-02T06:46:21;101175.01;;;-1.77;100.00
36454;BME280;22478;51.740;-1.314;2023-04-02T06:48:53;101179.14;;;-1.75;100.00
36454;BME280;22478;51.740;-1.314;2023-04-02T06:51:23;101185.78;;;-1.05;100.00
36454;BME280;22478;51.740;-1.314;2023-04-02T06:53:52;101183.50;;;-0.08;100.00
36454;BME280;22478;51.740;-1.314;2023-04-02T06:56:27;101188.97;;;-0.94;100.00
36454;BME280;22478;51.740;-1.314;2023-04-02T06:58:58;101189.36;;;0.58;100.00
36454;BME280;22478;51.740;-1.314;2023-04-02T07:01:28;101193.30;;;-0.80;100.00
36454;BME280;22478;51.740;-1.314;2023-04-02T07:03:56;101189.95;;;0.48;100.00
36454;BME280;22478;51.740;-1.314;2023-04-02T07:06:24;101190.43;;;-0.62;100.00
36454;BME280;22478;51.740;-1.314;2023-04-02T07:08:51;101189.92;;;-0.92;100.00
36454;BME280;22478;51.740;-1.314;2023-04-02T07:11:20;101200.19;;;-2.31;100.00
36454;BME280;22478;51.740;-1.314;2023-04-02T07:13:48;101205.94;;;-1.65;100.00
36454;BME280;22478;51.740;-1.314;2023-04-02T07:16:17;101207.63;;;-1.60;100.00
36454;BME280;22478;51.740;-1.314;2023-04-02T07:18:45;101214.80;;;-1.41;100.00
36454;BME280;22478;51.740;-1.314;2023-04-02T07:21:13;101215.70;;;-0.82;100.00
36454;BME280;22478;51.740;-1.314;2023-04-02T07:23:40;101222.83;;;-1.32;100.00
36454;BME280;22478;51.740;-1.314;2023-04-02T07:26:12;101243.40;;;-2.74;100.00
36454;BME280;22478;51.740;-1.314;2023-04-02T07:28:40;101241.06;;;-1.60;100.00
36454;BME280;22478;51.740;-1.314;2023-04-02T07:31:15;101257.27;;;-1.89;100.00
36454;BME280;22478;51.740;-1.314;2023-04-02T07:33:42;101263.35;;;-2.23;100.00
36454;BME280;22478;51.740;-1.314;2023-04-02T07:36:13;101264.35;;;-1.65;100.00
36454;BME280;22478;51.740;-1.314;2023-04-02T07:38:41;101271.55;;;-1.50;100.00
36454;BME280;22478;51.740;-1.314;2023-04-02T07:41:08;101280.13;;;-2.40;100.00
36454;BME280;22478;51.740;-1.314;2023-04-02T07:43:35;101271.79;;;-0.81;100.00
36454;BME280;22478;51.740;-1.314;2023-04-02T07:46:04;101273.06;;;-0.21;100.00
36454;BME280;22478;51.740;-1.314;2023-04-02T07:48:32;101279.43;;;-0.93;100.00
36454;BME280;22478;51.740;-1.314;2023-04-02T07:51:00;101290.33;;;-1.90;100.00
36454;BME280;22478;51.740;-1.314;2023-04-02T07:53:28;101299.25;;;-1.49;100.00
36454;BME280;22478;51.740;-1.314;2023-04-02T07:55:58;101286.27;;;-1.40;100.00
36454;BME280;22478;51.740;-1.314;2023-04-02T07:58:25;101286.19;;;-1.50;100.00
36454;BME280;22478;51.740;-1.314;2023-04-02T08:00:53;101284.63;;;-0.27;100.00
36454;BME280;22478;51.740;-1.314;2023-04-02T08:03:20;101293.18;;;-0.92;100.00
36454;BME280;22478;51.740;-1.314;2023-04-02T08:05:50;101295.93;;;-1.02;100.00
36454;BME280;22478;51.740;-1.314;2023-04-02T08:08:18;101300.77;;;-1.86;100.00
36454;BME280;22478;51.740;-1.314;2023-04-02T08:10:46;101305.01;;;-1.79;100.00
36454;BME280;22478;51.740;-1.314;2023-04-02T08:13:14;101306.63;;;-1.31;100.00
36454;BME280;22478;51.740;-1.314;2023-04-02T08:15:43;101313.64;;;-1.89;100.00
36454;BME280;22478;51.740;-1.314;2023-04-02T08:18:10;101315.19;;;-2.15;100.00
36454;BME280;22478;51.740;-1.314;2023-04-02T08:20:38;101324.51;;;-3.29;100.00
36454;BME280;22478;51.740;-1.314;2023-04-02T08:23:12;101320.78;;;-1.98;100.00
36454;BME280;22478;51.740;-1.314;2023-04-02T08:25:39;101323.60;;;-3.15;100.00
36454;BME280;22478;51.740;-1.314;2023-04-02T08:28:07;101325.42;;;-2.05;100.00
36454;BME280;22478;51.740;-1.314;2023-04-02T08:30:34;101315.90;;;0.33;100.00
36454;BME280;22478;51.740;-1.314;2023-04-02T08:33:01;101319.45;;;-1.55;100.00
36454;BME280;22478;51.740;-1.314;2023-04-02T08:35:29;101322.47;;;0.02;100.00
36454;BME280;22478;51.740;-1.314;2023-04-02T08:37:56;101332.00;;;-1.56;100.00
36454;BME280;22478;51.740;-1.314;2023-04-02T08:40:26;101333.27;;;-1.03;100.00
36454;BME280;22478;51.740;-1.314;2023-04-02T08:43:07;101338.93;;;-1.54;100.00
36454;BME280;22478;51.740;-1.314;2023-04-02T08:45:47;101342.52;;;-1.30;100.00
36454;BME280;22478;51.740;-1.314;2023-04-02T08:48:19;101339.31;;;-0.37;100.00
36454;BME280;22478;51.740;-1.314;2023-04-02T08:50:48;101350.66;;;-1.72;100.00
36454;BME280;22478;51.740;-1.314;2023-04-02T08:53:19;101348.54;;;-0.09;100.00
36454;BME280;22478;51.740;-1.314;2023-04-02T08:55:55;101365.99;;;-2.08;100.00
36454;BME280;22478;51.740;-1.314;2023-04-02T08:58:30;101372.45;;;-1.80;100.00
36454;BME280;22478;51.740;-1.314;2023-04-02T09:01:02;101369.82;;;-0.42;100.00
36454;BME280;22478;51.740;-1.314;2023-04-02T09:03:33;101376.11;;;-0.91;100.00
36454;BME280;22478;51.740;-1.314;2023-04-02T09:06:02;101384.34;;;-1.40;100.00
36454;BME280;22478;51.740;-1.314;2023-04-02T09:08:31;101387.78;;;-1.34;100.00
36454;BME280;22478;51.740;-1.314;2023-04-02T09:11:03;101386.88;;;-0.58;100.00
36454;BME280;22478;51.740;-1.314;2023-04-02T09:13:33;101380.06;;;-0.47;100.00
36454;BME280;22478;51.740;-1.314;2023-04-02T09:16:07;101385.62;;;-1.68;100.00
36454;BME280;22478;51.740;-1.314;2023-04-02T09:18:37;101383.29;;;-1.51;100.00
36454;BME280;22478;51.740;-1.314;2023-04-02T09:21:30;101388.20;;;-1.43;100.00
36454;BME280;22478;51.740;-1.314;2023-04-02T09:23:59;101389.23;;;-1.04;100.00
36454;BME280;22478;51.740;-1.314;2023-04-02T09:26:29;101398.39;;;-1.35;100.00
36454;BME280;22478;51.740;-1.314;2023-04-02T09:29:01;101391.75;;;-0.57;100.00
36454;BME280;22478;51.740;-1.314;2023-04-02T09:31:38;101392.80;;;-0.76;100.00
36454;BME280;22478;51.740;-1.314;2023-04-02T09:34:26;101391.51;;;-0.84;100.00
36454;BME280;22478;51.740;-1.314;2023-04-02T09:36:55;101386.59;;;0.31;100.00
36454;BME280;22478;51.740;-1.314;2023-04-02T09:39:23;101391.92;;;0.33;100.00
36454;BME280;22478;51.740;-1.314;2023-04-02T09:41:51;101397.43;;;2.24;100.00
36454;BME280;22478;51.740;-1.314;2023-04-02T09:44:22;101408.53;;;0.23;100.00
36454;BME280;22478;51.740;-1.314;2023-04-02T09:46:53;101414.50;;;0.44;100.00
36454;BME280;22478;51.740;-1.314;2023-04-02T09:49:24;101418.89;;;-1.17;100.00
36454;BME280;22478;51.740;-1.314;2023-04-02T09:52:07;101425.76;;;-1.23;100.00
36454;BME280;22478;51.740;-1.314;2023-04-02T09:54:36;101422.65;;;-1.23;100.00
36454;BME280;22478;51.740;-1.314;2023-04-02T09:57:04;101425.59;;;-1.28;100.00
36454;BME280;22478;51.740;-1.314;2023-04-02T09:59:31;101423.36;;;-0.25;100.00
36454;BME280;22478;51.740;-1.314;2023-04-02T10:01:59;101431.91;;;-0.32;100.00
36454;BME280;22478;51.740;-1.314;2023-04-02T10:04:34;101434.76;;;-0.09;100.00
36454;BME280;22478;51.740;-1.314;2023-04-02T10:07:02;101425.66;;;1.49;100.00
36454;BME280;22478;51.740;-1.314;2023-04-02T10:09:31;101433.42;;;-0.06;100.00
36454;BME280;22478;51.740;-1.314;2023-04-02T10:12:02;101431.05;;;0.27;100.00
36454;BME280;22478;51.740;-1.314;2023-04-02T10:14:34;101434.86;;;0.71;100.00
36454;BME280;22478;51.740;-1.314;2023-04-02T10:17:08;101441.25;;;-0.53;100.00
36454;BME280;22478;51.740;-1.314;2023-04-02T10:19:40;101443.57;;;-0.43;100.00
36454;BME280;22478;51.740;-1.314;2023-04-02T10:22:12;101446.78;;;0.78;100.00
36454;BME280;22478;51.740;-1.314;2023-04-02T10:24:40;101447.49;;;-0.84;100.00
36454;BME280;22478;51.740;-1.314;2023-04-02T10:27:17;101445.96;;;1.87;100.00
36454;BME280;22478;51.740;-1.314;2023-04-02T10:29:54;101448.54;;;2.77;100.00
36454;BME280;22478;51.740;-1.314;2023-04-02T10:32:29;101451.74;;;1.09;100.00
36454;BME280;22478;51.740;-1.314;2023-04-02T10:35:01;101465.85;;;-0.12;100.00
36454;BME280;22478;51.740;-1.314;2023-04-02T10:38:48;101467.73;;;0.76;100.00
36454;BME280;22478;51.740;-1.314;2023-04-02T10:41:25;101467.11;;;1.09;100.00
36454;BME280;22478;51.740;-1.314;2023-04-02T10:44:06;101468.77;;;-0.24;100.00
36454;BME280;22478;51.740;-1.314;2023-04-02T10:46:41;101472.96;;;0.66;100.00
36454;BME280;22478;51.740;-1.314;2023-04-02T10:49:19;101469.64;;;1.17;100.00
36454;BME280;22478;51.740;-1.314;2023-04-02T10:51:54;101480.93;;;-0.29;100.00
36454;BME280;22478;51.740;-1.314;2023-04-02T10:54:34;101475.39;;;1.14;100.00
36454;BME280;22478;51.740;-1.314;2023-04-02T10:57:08;101477.93;;;0.11;100.00
36454;BME280;22478;51.740;-1.314;2023-04-02T10:59:42;101481.00;;;0.29;100.00
36454;BME280;22478;51.740;-1.314;2023-04-02T11:02:23;101478.06;;;1.44;100.00
36454;BME280;22478;51.740;-1.314;2023-04-02T11:04:52;101479.98;;;1.94;100.00
36454;BME280;22478;51.740;-1.314;2023-04-02T11:07:23;101485.63;;;2.22;100.00
36454;BME280;22478;51.740;-1.314;2023-04-02T11:09:54;101490.33;;;3.88;100.00
36454;BME280;22478;51.740;-1.314;2023-04-02T11:12:26;101494.02;;;2.19;100.00
36454;BME280;22478;51.740;-1.314;2023-04-02T11:14:58;101492.93;;;2.73;100.00
36454;BME280;22478;51.740;-1.314;2023-04-02T11:17:26;101495.94;;;0.74;100.00
36454;BME280;22478;51.740;-1.314;2023-04-02T11:19:53;101493.25;;;2.10;100.00
36454;BME280;22478;51.740;-1.314;2023-04-02T11:22:22;101494.48;;;1.25;100.00
36454;BME280;22478;51.740;-1.314;2023-04-02T11:24:50;101490.45;;;2.04;100.00
36454;BME280;22478;51.740;-1.314;2023-04-02T11:27:23;101495.10;;;2.81;100.00
36454;BME280;22478;51.740;-1.314;2023-04-02T11:30:00;101495.17;;;3.79;100.00
36454;BME280;22478;51.740;-1.314;2023-04-02T11:32:34;101493.95;;;2.63;100.00
36454;BME280;22478;51.740;-1.314;2023-04-02T11:35:24;101481.48;;;4.58;95.66
36454;BME280;22478;51.740;-1.314;2023-04-02T11:37:52;101489.74;;;3.62;100.00
36454;BME280;22478;51.740;-1.314;2023-04-02T11:40:42;101487.91;;;4.93;91.54
36454;BME280;22478;51.740;-1.314;2023-04-02T11:43:48;101489.03;;;4.90;93.22
36454;BME280;22478;51.740;-1.314;2023-04-02T11:46:49;101494.36;;;4.31;93.94
36454;BME280;22478;51.740;-1.314;2023-04-02T11:51:49;101500.91;;;5.26;96.58
36454;BME280;22478;51.740;-1.314;2023-04-02T11:54:22;101503.81;;;3.31;98.81
36454;BME280;22478;51.740;-1.314;2023-04-02T11:56:56;101502.47;;;3.62;100.00
36454;BME280;22478;51.740;-1.314;2023-04-02T11:59:31;101495.89;;;6.01;87.31
36454;BME280;22478;51.740;-1.314;2023-04-02T12:02:09;101511.98;;;2.66;100.00
36454;BME280;22478;51.740;-1.314;2023-04-02T12:04:52;101518.87;;;2.65;100.00
36454;BME280;22478;51.740;-1.314;2023-04-02T12:07:37;101523.50;;;1.86;100.00
36454;BME280;22478;51.740;-1.314;2023-04-02T12:10:16;101533.49;;;1.09;100.00
36454;BME280;22478;51.740;-1.314;2023-04-02T12:12:44;101526.59;;;2.35;100.00
36454;BME280;22478;51.740;-1.314;2023-04-02T12:15:32;101525.65;;;1.52;100.00
36454;BME280;22478;51.740;-1.314;2023-04-02T12:18:08;101533.99;;;1.74;100.00
36454;BME280;22478;51.740;-1.314;2023-04-02T12:20:37;101535.04;;;0.28;100.00
36454;BME280;22478;51.740;-1.314;2023-04-02T12:23:05;101528.31;;;3.84;98.98
36454;BME280;22478;51.740;-1.314;2023-04-02T12:25:34;101510.01;;;8.07;82.24
36454;BME280;22478;51.740;-1.314;2023-04-02T12:28:05;101514.09;;;6.67;82.46
36454;BME280;22478;51.740;-1.314;2023-04-02T12:30:33;101516.26;;;6.08;75.01
36454;BME280;22478;51.740;-1.314;2023-04-02T12:33:14;101525.70;;;4.73;82.49
36454;BME280;22478;51.740;-1.314;2023-04-02T12:35:41;101525.91;;;5.03;86.98
36454;BME280;22478;51.740;-1.314;2023-04-02T12:38:19;101521.03;;;5.22;80.23
36454;BME280;22478;51.740;-1.314;2023-04-02T12:40:55;101510.96;;;9.50;66.60
36454;BME280;22478;51.740;-1.314;2023-04-02T12:43:25;101519.82;;;8.47;67.95
36454;BME280;22478;51.740;-1.314;2023-04-02T12:45:54;101524.19;;;8.43;59.45
36454;BME280;22478;51.740;-1.314;2023-04-02T12:48:22;101526.08;;;5.77;69.83
36454;BME280;22478;51.740;-1.314;2023-04-02T12:50:50;101521.07;;;6.50;74.23
36454;BME280;22478;51.740;-1.314;2023-04-02T12:53:20;101516.85;;;9.72;59.65
36454;BME280;22478;51.740;-1.314;2023-04-02T12:55:49;101525.66;;;6.80;71.56
36454;BME280;22478;51.740;-1.314;2023-04-02T12:58:24;101534.05;;;4.93;76.21
36454;BME280;22478;51.740;-1.314;2023-04-02T13:01:07;101536.55;;;3.57;83.67
36454;BME280;22478;51.740;-1.314;2023-04-02T13:03:34;101531.79;;;6.31;86.56
36454;BME280;22478;51.740;-1.314;2023-04-02T13:06:02;101523.88;;;6.71;79.18
36454;BME280;22478;51.740;-1.314;2023-04-02T13:08:35;101528.32;;;6.19;73.36
36454;BME280;22478;51.740;-1.314;2023-04-02T13:11:04;101525.97;;;6.23;80.27